createdAt,value
2018-06-19T00:03:16.524Z,96352.00
2018-06-19T00:08:46.453Z,96347.00
2018-06-19T00:14:16.746Z,96357.00
2018-06-19T00:19:51.025Z,96350.00
2018-06-19T00:25:20.495Z,96344.00
2018-06-19T00:30:50.058Z,96348.00
2018-06-19T00:36:19.609Z,96351.00
2018-06-19T00:41:48.969Z,96350.00
2018-06-19T00:47:18.432Z,96351.00
2018-06-19T00:52:47.965Z,96351.00
2018-06-19T00:58:17.417Z,96345.00
2018-06-19T01:03:46.923Z,96342.00
2018-06-19T01:09:16.517Z,96345.00
2018-06-19T01:14:46.092Z,96347.00
2018-06-19T01:20:15.655Z,96340.00
2018-06-19T01:25:45.222Z,96350.00
2018-06-19T01:31:14.409Z,96350.00
2018-06-19T01:36:43.599Z,96349.00
2018-06-19T01:42:12.771Z,96352.00
2018-06-19T01:47:41.972Z,96353.00
2018-06-19T01:53:11.173Z,96355.00
2018-06-19T01:58:40.496Z,96360.00
2018-06-19T02:04:09.693Z,96368.00
2018-06-19T02:09:39.026Z,96359.00
2018-06-19T02:15:08.250Z,96378.00
2018-06-19T02:20:37.551Z,96366.00
2018-06-19T02:26:06.465Z,96379.00
2018-06-19T02:31:35.664Z,96379.00
2018-06-19T02:37:04.868Z,96372.00
2018-06-19T02:42:34.711Z,96372.00
2018-06-19T02:48:04.309Z,96376.00
2018-06-19T02:53:33.998Z,96375.00
2018-06-19T02:59:03.665Z,96392.00
2018-06-19T03:04:33.255Z,96399.00
2018-06-19T03:10:02.862Z,96406.00
2018-06-19T03:15:32.725Z,96402.00
2018-06-19T03:21:02.369Z,96395.00
2018-06-19T03:26:32.131Z,96404.00
2018-06-19T03:32:01.325Z,96413.00
2018-06-19T03:37:31.188Z,96417.00
2018-06-19T03:43:01.196Z,96418.00
2018-06-19T03:48:31.036Z,96417.00
2018-06-19T03:54:01.279Z,96430.00
2018-06-19T03:59:32.203Z,96437.00
2018-06-19T04:05:01.749Z,96437.00
2018-06-19T04:10:31.686Z,96433.00
2018-06-19T04:16:02.225Z,96429.00
2018-06-19T04:21:32.149Z,96441.00
2018-06-19T04:27:01.769Z,96446.00
2018-06-19T04:32:31.407Z,96443.00
2018-06-19T04:38:01.191Z,96452.00
2018-06-19T04:43:31.181Z,96447.00
2018-06-19T04:49:01.900Z,96455.00
2018-06-19T04:54:31.738Z,96466.00
2018-06-19T05:00:02.973Z,96454.00
2018-06-19T05:05:34.672Z,96454.00
2018-06-19T05:11:04.253Z,96462.00
2018-06-19T05:16:34.172Z,96451.00
2018-06-19T05:22:05.442Z,96456.00
2018-06-19T05:27:34.731Z,96467.00
2018-06-19T05:33:04.073Z,96472.00
2018-06-19T05:38:34.212Z,96479.00
2018-06-19T05:44:05.271Z,96484.00
2018-06-19T05:49:35.186Z,96487.00
2018-06-19T05:55:04.947Z,96484.00
2018-06-19T06:00:34.548Z,96490.00
2018-06-19T06:06:04.337Z,96500.00
2018-06-19T06:11:34.027Z,96495.00
2018-06-19T06:17:05.111Z,96501.00
2018-06-19T06:22:34.827Z,96505.00
2018-06-19T06:28:04.449Z,96503.00
2018-06-19T06:33:33.639Z,96514.00
2018-06-19T06:39:02.859Z,96516.00
2018-06-19T06:44:32.039Z,96514.00
2018-06-19T06:50:01.253Z,96512.00
2018-06-19T06:55:30.440Z,96534.00
2018-06-19T07:00:59.689Z,96524.00
2018-06-19T07:06:28.907Z,96530.00
2018-06-19T07:11:58.106Z,96523.00
2018-06-19T07:17:27.302Z,96533.00
2018-06-19T07:22:56.559Z,96529.00
2018-06-19T07:28:25.738Z,96530.00
2018-06-19T07:33:55.201Z,96528.00
2018-06-19T07:39:24.416Z,96534.00
2018-06-19T07:44:53.590Z,96528.00
2018-06-19T07:50:22.810Z,96523.00
2018-06-19T07:55:52.033Z,96524.00
2018-06-19T08:01:21.874Z,96520.00
2018-06-19T08:06:51.120Z,96528.00
2018-06-19T08:12:20.070Z,96519.00
2018-06-19T08:17:49.273Z,96527.00
2018-06-19T08:23:18.713Z,96521.00
2018-06-19T08:28:48.100Z,96519.00
2018-06-19T08:34:18.054Z,96527.00
2018-06-19T08:39:48.038Z,96521.00
2018-06-19T08:45:18.183Z,96525.00
2018-06-19T08:50:48.221Z,96521.00
2018-06-19T08:56:18.479Z,96516.00
2018-06-19T09:01:48.867Z,96513.00
2018-06-19T09:07:19.693Z,96501.00
2018-06-19T09:12:49.469Z,96506.00
2018-06-19T09:18:18.984Z,96504.00
2018-06-19T09:23:50.896Z,96503.00
2018-06-19T09:29:20.607Z,96500.00
2018-06-19T09:34:50.063Z,96508.00
2018-06-19T09:40:19.237Z,96502.00
2018-06-19T09:45:49.192Z,96508.00
2018-06-19T09:51:18.810Z,96498.00
2018-06-19T09:56:48.874Z,96505.00
2018-06-19T10:02:19.012Z,96501.00
2018-06-19T10:07:49.289Z,96504.00
2018-06-19T10:13:20.012Z,96502.00
2018-06-19T10:18:50.128Z,96497.00
2018-06-19T10:24:20.348Z,96497.00
2018-06-19T10:29:50.599Z,96498.00
2018-06-19T10:35:19.978Z,96490.00
2018-06-19T10:40:49.559Z,96491.00
2018-06-19T10:46:19.390Z,96492.00
2018-06-19T10:51:48.908Z,96487.00
2018-06-19T10:57:18.340Z,96492.00
2018-06-19T11:02:48.879Z,96471.00
2018-06-19T11:08:18.865Z,96487.00
2018-06-19T11:13:48.120Z,96478.00
2018-06-19T11:19:17.694Z,96473.00
2018-06-19T11:24:46.971Z,96487.00
2018-06-19T11:30:16.286Z,96484.00
2018-06-19T11:35:46.800Z,96483.00
2018-06-19T11:41:16.076Z,96488.00
2018-06-19T11:46:45.887Z,96485.00
2018-06-19T11:52:15.712Z,96495.00
2018-06-19T11:57:45.405Z,96498.00
2018-06-19T12:03:14.953Z,96492.00
2018-06-19T12:08:44.331Z,96490.00
2018-06-19T12:14:13.816Z,96484.00
2018-06-19T12:19:45.256Z,96468.00
2018-06-19T12:25:14.797Z,96465.00
2018-06-19T12:30:44.053Z,96472.00
2018-06-19T12:36:13.243Z,96473.00
2018-06-19T12:41:46.333Z,96472.00
2018-06-19T12:47:16.301Z,96461.00
2018-06-19T12:53:02.444Z,96458.00
2018-06-19T12:58:31.656Z,96463.00
2018-06-19T13:04:18.048Z,96447.00
2018-06-19T13:09:47.814Z,96449.00
2018-06-19T13:15:17.516Z,96450.00
2018-06-19T13:20:50.793Z,96442.00
2018-06-19T13:26:20.447Z,96444.00
2018-06-19T13:31:50.426Z,96432.00
2018-06-19T13:37:19.621Z,96433.00
2018-06-19T13:45:12.255Z,96440.00
2018-06-19T13:50:43.399Z,96441.00
2018-06-19T13:57:41.935Z,96434.00
2018-06-19T14:03:12.444Z,96423.00
2018-06-19T14:09:13.405Z,96420.00
2018-06-19T14:14:43.855Z,96421.00
2018-06-19T14:20:15.322Z,96414.00
2018-06-19T14:25:46.285Z,96408.00
2018-06-19T14:31:15.626Z,96404.00
2018-06-19T14:36:44.793Z,96420.00
2018-06-19T14:42:18.038Z,96410.00
2018-06-19T14:47:47.610Z,96399.00
2018-06-19T14:53:17.728Z,96399.00
2018-06-19T14:58:47.826Z,96405.00
2018-06-19T15:04:17.628Z,96388.00
2018-06-19T15:09:48.573Z,96375.00
2018-06-19T15:15:18.435Z,96384.00
2018-06-19T15:20:48.303Z,96390.00
2018-06-19T15:26:18.787Z,96391.00
2018-06-19T15:31:47.990Z,96391.00
2018-06-19T15:37:17.170Z,96393.00
2018-06-19T15:42:46.893Z,96381.00
2018-06-19T15:48:18.205Z,96378.00
2018-06-19T15:53:48.151Z,96380.00
2018-06-19T15:59:21.356Z,96382.00
2018-06-19T16:04:51.574Z,96378.00
2018-06-19T16:10:21.290Z,96381.00
2018-06-19T16:15:51.012Z,96381.00
2018-06-19T16:21:21.086Z,96377.00
2018-06-19T16:26:52.412Z,96379.00
2018-06-19T16:32:21.621Z,96375.00
2018-06-19T16:37:50.795Z,96363.00
2018-06-19T16:43:21.028Z,96381.00
2018-06-19T16:48:51.311Z,96377.00
2018-06-19T16:54:21.168Z,96371.00
2018-06-19T16:59:50.978Z,96369.00
2018-06-19T17:05:20.417Z,96370.00
2018-06-19T17:10:50.792Z,96371.00
2018-06-19T17:16:20.683Z,96375.00
2018-06-19T17:21:50.686Z,96376.00
2018-06-19T17:27:20.898Z,96374.00
2018-06-19T17:32:50.084Z,96378.00
2018-06-19T17:38:19.949Z,96379.00
2018-06-19T17:43:50.335Z,96377.00
2018-06-19T17:49:20.516Z,96370.00
2018-06-19T17:54:50.959Z,96376.00
2018-06-19T18:00:20.830Z,96371.00
2018-06-19T18:05:50.761Z,96381.00
2018-06-19T18:11:22.202Z,96367.00
2018-06-19T18:16:51.898Z,96373.00
2018-06-19T18:22:21.986Z,96362.00
2018-06-19T18:27:51.458Z,96378.00
2018-06-19T18:33:44.482Z,96374.00
2018-06-19T18:39:15.355Z,96377.00
2018-06-19T18:44:45.775Z,96383.00
2018-06-19T18:50:21.436Z,96383.00
2018-06-19T18:55:51.322Z,96376.00
2018-06-19T19:01:21.261Z,96375.00
2018-06-19T19:06:51.510Z,96378.00
2018-06-19T19:12:21.888Z,96394.00
2018-06-19T19:17:56.745Z,96391.00
2018-06-19T19:23:25.996Z,96394.00
2018-06-19T19:29:01.279Z,96403.00
2018-06-19T19:34:30.498Z,96401.00
2018-06-19T19:39:59.737Z,96402.00
2018-06-19T19:45:28.946Z,96403.00
2018-06-19T19:50:58.178Z,96407.00
2018-06-19T19:56:32.647Z,96420.00
2018-06-19T20:02:01.855Z,96411.00
2018-06-19T20:07:31.102Z,96411.00
2018-06-19T20:13:00.312Z,96406.00
2018-06-19T20:18:29.548Z,96414.00
2018-06-19T20:23:58.751Z,96412.00
2018-06-19T20:29:28.034Z,96405.00
2018-06-19T20:34:57.388Z,96410.00
2018-06-19T20:40:26.620Z,96422.00
2018-06-19T20:45:55.811Z,96417.00
2018-06-19T20:51:24.999Z,96418.00
2018-06-19T20:56:54.275Z,96415.00
2018-06-19T21:02:23.451Z,96416.00
2018-06-19T21:07:52.716Z,96411.00
2018-06-19T21:13:21.934Z,96409.00
2018-06-19T21:18:50.834Z,96413.00
2018-06-19T21:24:20.197Z,96416.00
2018-06-19T21:29:49.458Z,96417.00
2018-06-19T21:35:18.664Z,96420.00
2018-06-19T21:40:48.029Z,96420.00
2018-06-19T21:46:17.535Z,96412.00
2018-06-19T21:51:47.043Z,96409.00
2018-06-19T21:57:16.729Z,96411.00
2018-06-19T22:02:46.387Z,96411.00
2018-06-19T22:08:16.066Z,96407.00
2018-06-19T22:13:46.179Z,96404.00
2018-06-19T22:19:15.793Z,96407.00
2018-06-19T22:24:45.867Z,96412.00
2018-06-19T22:30:15.643Z,96406.00
2018-06-19T22:35:45.539Z,96403.00
2018-06-19T22:41:15.466Z,96403.00
2018-06-19T22:46:45.869Z,96403.00
2018-06-19T22:52:16.544Z,96399.00
2018-06-19T22:57:46.248Z,96396.00
2018-06-19T23:03:16.680Z,96395.00
2018-06-19T23:08:49.695Z,96396.00
2018-06-19T23:14:19.107Z,96386.00
2018-06-19T23:19:49.101Z,96393.00
2018-06-19T23:25:19.316Z,96390.00
2018-06-19T23:30:48.820Z,96389.00
2018-06-19T23:36:18.227Z,96388.00
2018-06-19T23:41:48.204Z,96391.00
2018-06-19T23:47:17.785Z,96393.00
2018-06-19T23:52:48.457Z,96382.00
2018-06-19T23:58:17.870Z,96374.00
